sensor_id;sensor_type;location;lat;lon;timestamp;P1;durP1;ratioP1;P2;durP2;ratioP2
51862;SDS011;37900;52.996;6.278;2023-04-03T00:01:14;1.67;;;1.08;;
51862;SDS011;37900;52.996;6.278;2023-04-03T00:03:41;2.67;;;1.33;;
51862;SDS011;37900;52.996;6.278;2023-04-03T00:06:07;3.75;;;1.38;;
51862;SDS011;37900;52.996;6.278;2023-04-03T00:08:35;1.40;;;1.15;;
51862;SDS011;37900;52.996;6.278;2023-04-03T00:11:01;2.58;;;1.42;;
51862;SDS011;37900;52.996;6.278;2023-04-03T00:13:27;2.28;;;1.33;;
51862;SDS011;37900;52.996;6.278;2023-04-03T00:15:53;2.15;;;1.50;;
51862;SDS011;37900;52.996;6.278;2023-04-03T00:18:19;1.60;;;1.13;;
51862;SDS011;37900;52.996;6.278;2023-04-03T00:20:45;2.17;;;1.00;;
51862;SDS011;37900;52.996;6.278;2023-04-03T00:23:12;2.28;;;1.10;;
51862;SDS011;37900;52.996;6.278;2023-04-03T00:25:38;1.88;;;1.10;;
51862;SDS011;37900;52.996;6.278;2023-04-03T00:28:04;2.60;;;1.50;;
51862;SDS011;37900;52.996;6.278;2023-04-03T00:30:30;4.68;;;1.55;;
51862;SDS011;37900;52.996;6.278;2023-04-03T00:32:56;2.63;;;1.40;;
51862;SDS011;37900;52.996;6.278;2023-04-03T00:35:22;1.88;;;1.40;;
51862;SDS011;37900;52.996;6.278;2023-04-03T00:37:52;2.23;;;1.27;;
51862;SDS011;37900;52.996;6.278;2023-04-03T00:40:20;3.08;;;1.52;;
51862;SDS011;37900;52.996;6.278;2023-04-03T00:42:48;3.40;;;1.27;;
51862;SDS011;37900;52.996;6.278;2023-04-03T00:45:24;3.45;;;1.60;;
51862;SDS011;37900;52.996;6.278;2023-04-03T00:47:55;1.95;;;1.30;;
51862;SDS011;37900;52.996;6.278;2023-04-03T00:50:24;4.40;;;1.45;;
51862;SDS011;37900;52.996;6.278;2023-04-03T00:52:51;2.45;;;1.20;;
51862;SDS011;37900;52.996;6.278;2023-04-03T00:55:18;1.42;;;1.10;;
51862;SDS011;37900;52.996;6.278;2023-04-03T00:57:45;2.38;;;1.33;;
51862;SDS011;37900;52.996;6.278;2023-04-03T01:00:13;2.10;;;1.10;;
51862;SDS011;37900;52.996;6.278;2023-04-03T01:02:40;2.10;;;1.20;;
51862;SDS011;37900;52.996;6.278;2023-04-03T01:05:06;1.92;;;1.30;;
51862;SDS011;37900;52.996;6.278;2023-04-03T01:07:32;1.15;;;1.00;;
51862;SDS011;37900;52.996;6.278;2023-04-03T01:10:05;2.58;;;1.25;;
51862;SDS011;37900;52.996;6.278;2023-04-03T01:12:35;2.38;;;1.08;;
51862;SDS011;37900;52.996;6.278;2023-04-03T01:17:39;2.65;;;1.30;;
51862;SDS011;37900;52.996;6.278;2023-04-03T01:22:59;1.67;;;1.20;;
51862;SDS011;37900;52.996;6.278;2023-04-03T01:25:34;1.50;;;1.33;;
51862;SDS011;37900;52.996;6.278;2023-04-03T01:28:02;1.15;;;0.65;;
51862;SDS011;37900;52.996;6.278;2023-04-03T01:30:39;2.28;;;1.10;;
51862;SDS011;37900;52.996;6.278;2023-04-03T01:33:27;1.45;;;1.00;;
51862;SDS011;37900;52.996;6.278;2023-04-03T01:35:52;1.80;;;0.93;;
51862;SDS011;37900;52.996;6.278;2023-04-03T01:38:18;1.98;;;1.00;;
51862;SDS011;37900;52.996;6.278;2023-04-03T01:40:43;1.25;;;0.95;;
51862;SDS011;37900;52.996;6.278;2023-04-03T01:43:09;2.08;;;1.00;;
51862;SDS011;37900;52.996;6.278;2023-04-03T01:45:35;1.25;;;0.75;;
51862;SDS011;37900;52.996;6.278;2023-04-03T01:48:01;2.13;;;0.75;;
51862;SDS011;37900;52.996;6.278;2023-04-03T01:50:27;2.35;;;1.00;;
51862;SDS011;37900;52.996;6.278;2023-04-03T01:52:53;1.35;;;0.77;;
51862;SDS011;37900;52.996;6.278;2023-04-03T01:55:19;1.10;;;0.70;;
51862;SDS011;37900;52.996;6.278;2023-04-03T01:57:44;1.92;;;1.35;;
51862;SDS011;37900;52.996;6.278;2023-04-03T02:00:10;1.42;;;0.88;;
51862;SDS011;37900;52.996;6.278;2023-04-03T02:02:37;1.00;;;0.65;;
51862;SDS011;37900;52.996;6.278;2023-04-03T02:05:03;1.90;;;1.02;;
51862;SDS011;37900;52.996;6.278;2023-04-03T02:07:28;1.40;;;0.90;;
51862;SDS011;37900;52.996;6.278;2023-04-03T02:09:54;0.98;;;0.75;;
51862;SDS011;37900;52.996;6.278;2023-04-03T02:12:20;2.83;;;1.30;;
51862;SDS011;37900;52.996;6.278;2023-04-03T02:14:46;2.28;;;1.10;;
51862;SDS011;37900;52.996;6.278;2023-04-03T02:17:12;2.47;;;1.25;;
51862;SDS011;37900;52.996;6.278;2023-04-03T02:19:37;2.17;;;1.25;;
51862;SDS011;37900;52.996;6.278;2023-04-03T02:22:03;1.67;;;1.10;;
51862;SDS011;37900;52.996;6.278;2023-04-03T02:24:29;1.08;;;0.75;;
51862;SDS011;37900;52.996;6.278;2023-04-03T02:26:58;1.13;;;0.75;;
51862;SDS011;37900;52.996;6.278;2023-04-03T02:29:24;3.05;;;0.90;;
51862;SDS011;37900;52.996;6.278;2023-04-03T02:31:50;1.15;;;0.90;;
51862;SDS011;37900;52.996;6.278;2023-04-03T02:34:16;2.10;;;1.10;;
51862;SDS011;37900;52.996;6.278;2023-04-03T02:36:42;1.98;;;0.82;;
51862;SDS011;37900;52.996;6.278;2023-04-03T02:39:08;1.85;;;0.85;;
51862;SDS011;37900;52.996;6.278;2023-04-03T02:41:34;1.65;;;0.93;;
51862;SDS011;37900;52.996;6.278;2023-04-03T02:44:01;2.33;;;1.20;;
51862;SDS011;37900;52.996;6.278;2023-04-03T02:46:28;1.42;;;0.77;;
51862;SDS011;37900;52.996;6.278;2023-04-03T02:48:54;1.25;;;0.88;;
51862;SDS011;37900;52.996;6.278;2023-04-03T02:51:20;1.02;;;0.82;;
51862;SDS011;37900;52.996;6.278;2023-04-03T02:53:46;1.85;;;0.85;;
51862;SDS011;37900;52.996;6.278;2023-04-03T02:56:11;1.25;;;1.00;;
51862;SDS011;37900;52.996;6.278;2023-04-03T02:58:37;1.50;;;0.88;;
51862;SDS011;37900;52.996;6.278;2023-04-03T03:01:03;1.50;;;0.75;;
51862;SDS011;37900;52.996;6.278;2023-04-03T03:03:29;1.35;;;0.77;;
51862;SDS011;37900;52.996;6.278;2023-04-03T03:06:05;1.35;;;0.90;;
51862;SDS011;37900;52.996;6.278;2023-04-03T03:08:32;1.80;;;1.00;;
51862;SDS011;37900;52.996;6.278;2023-04-03T03:10:58;0.90;;;0.80;;
51862;SDS011;37900;52.996;6.278;2023-04-03T03:13:24;1.02;;;0.80;;
51862;SDS011;37900;52.996;6.278;2023-04-03T03:15:50;0.77;;;0.70;;
51862;SDS011;37900;52.996;6.278;2023-04-03T03:18:16;2.28;;;1.15;;
51862;SDS011;37900;52.996;6.278;2023-04-03T03:20:41;1.73;;;0.90;;
51862;SDS011;37900;52.996;6.278;2023-04-03T03:23:07;1.35;;;0.90;;
51862;SDS011;37900;52.996;6.278;2023-04-03T03:25:33;0.90;;;0.75;;
51862;SDS011;37900;52.996;6.278;2023-04-03T03:28:02;1.95;;;1.20;;
51862;SDS011;37900;52.996;6.278;2023-04-03T03:30:28;1.67;;;1.05;;
51862;SDS011;37900;52.996;6.278;2023-04-03T03:32:53;2.00;;;1.10;;
51862;SDS011;37900;52.996;6.278;2023-04-03T03:35:19;1.38;;;1.02;;
51862;SDS011;37900;52.996;6.278;2023-04-03T03:37:45;2.17;;;0.85;;
51862;SDS011;37900;52.996;6.278;2023-04-03T03:40:10;1.25;;;0.73;;
51862;SDS011;37900;52.996;6.278;2023-04-03T03:42:38;1.52;;;0.80;;
51862;SDS011;37900;52.996;6.278;2023-04-03T03:45:04;2.35;;;0.75;;
51862;SDS011;37900;52.996;6.278;2023-04-03T03:47:31;2.03;;;0.68;;
51862;SDS011;37900;52.996;6.278;2023-04-03T03:49:56;1.08;;;0.57;;
51862;SDS011;37900;52.996;6.278;2023-04-03T03:52:22;1.35;;;0.73;;
51862;SDS011;37900;52.996;6.278;2023-04-03T03:54:48;2.33;;;0.80;;
51862;SDS011;37900;52.996;6.278;2023-04-03T03:57:14;2.10;;;0.70;;
51862;SDS011;37900;52.996;6.278;2023-04-03T03:59:40;0.95;;;0.70;;
51862;SDS011;37900;52.996;6.278;2023-04-03T04:02:07;2.40;;;0.77;;
51862;SDS011;37900;52.996;6.278;2023-04-03T04:04:33;1.23;;;0.70;;
51862;SDS011;37900;52.996;6.278;2023-04-03T04:06:59;2.15;;;0.98;;
51862;SDS011;37900;52.996;6.278;2023-04-03T04:09:25;1.20;;;0.83;;
51862;SDS011;37900;52.996;6.278;2023-04-03T04:11:51;0.77;;;0.57;;
51862;SDS011;37900;52.996;6.278;2023-04-03T04:14:18;1.52;;;0.82;;
51862;SDS011;37900;52.996;6.278;2023-04-03T04:16:45;1.23;;;0.93;;
51862;SDS011;37900;52.996;6.278;2023-04-03T04:19:12;0.63;;;0.57;;
51862;SDS011;37900;52.996;6.278;2023-04-03T04:21:37;1.17;;;0.80;;
51862;SDS011;37900;52.996;6.278;2023-04-03T04:24:04;1.05;;;0.63;;
51862;SDS011;37900;52.996;6.278;2023-04-03T04:26:30;1.60;;;1.00;;
51862;SDS011;37900;52.996;6.278;2023-04-03T04:28:56;1.05;;;0.65;;
51862;SDS011;37900;52.996;6.278;2023-04-03T04:31:22;1.38;;;0.90;;
51862;SDS011;37900;52.996;6.278;2023-04-03T04:33:48;1.38;;;0.57;;
51862;SDS011;37900;52.996;6.278;2023-04-03T04:36:13;2.22;;;0.80;;
51862;SDS011;37900;52.996;6.278;2023-04-03T04:38:40;0.77;;;0.70;;
51862;SDS011;37900;52.996;6.278;2023-04-03T04:41:06;1.00;;;0.50;;
51862;SDS011;37900;52.996;6.278;2023-04-03T04:43:32;0.98;;;0.70;;
51862;SDS011;37900;52.996;6.278;2023-04-03T04:46:08;1.88;;;0.88;;
51862;SDS011;37900;52.996;6.278;2023-04-03T04:48:37;1.80;;;0.82;;
51862;SDS011;37900;52.996;6.278;2023-04-03T04:51:03;0.73;;;0.65;;
51862;SDS011;37900;52.996;6.278;2023-04-03T04:53:29;1.48;;;0.90;;
51862;SDS011;37900;52.996;6.278;2023-04-03T04:55:55;2.47;;;0.80;;
51862;SDS011;37900;52.996;6.278;2023-04-03T04:58:21;0.70;;;0.52;;
51862;SDS011;37900;52.996;6.278;2023-04-03T05:00:47;0.57;;;0.55;;
51862;SDS011;37900;52.996;6.278;2023-04-03T05:03:12;0.65;;;0.63;;
51862;SDS011;37900;52.996;6.278;2023-04-03T05:05:38;1.45;;;0.70;;
51862;SDS011;37900;52.996;6.278;2023-04-03T05:08:04;1.35;;;0.80;;
51862;SDS011;37900;52.996;6.278;2023-04-03T05:10:30;1.52;;;0.85;;
51862;SDS011;37900;52.996;6.278;2023-04-03T05:12:57;2.10;;;1.13;;
51862;SDS011;37900;52.996;6.278;2023-04-03T05:15:23;0.93;;;0.50;;
51862;SDS011;37900;52.996;6.278;2023-04-03T05:17:48;0.80;;;0.60;;
51862;SDS011;37900;52.996;6.278;2023-04-03T05:20:15;1.60;;;0.90;;
51862;SDS011;37900;52.996;6.278;2023-04-03T05:22:41;1.67;;;0.73;;
51862;SDS011;37900;52.996;6.278;2023-04-03T05:25:07;0.95;;;0.75;;
51862;SDS011;37900;52.996;6.278;2023-04-03T05:27:33;1.13;;;0.70;;
51862;SDS011;37900;52.996;6.278;2023-04-03T05:29:58;1.15;;;0.70;;
51862;SDS011;37900;52.996;6.278;2023-04-03T05:32:25;1.45;;;0.77;;
51862;SDS011;37900;52.996;6.278;2023-04-03T05:34:52;1.23;;;0.70;;
51862;SDS011;37900;52.996;6.278;2023-04-03T05:37:19;0.68;;;0.68;;
51862;SDS011;37900;52.996;6.278;2023-04-03T05:39:44;0.90;;;0.70;;
51862;SDS011;37900;52.996;6.278;2023-04-03T05:42:10;2.10;;;0.73;;
51862;SDS011;37900;52.996;6.278;2023-04-03T05:44:36;0.68;;;0.60;;
51862;SDS011;37900;52.996;6.278;2023-04-03T05:47:03;1.33;;;0.50;;
51862;SDS011;37900;52.996;6.278;2023-04-03T05:49:29;0.98;;;0.60;;
51862;SDS011;37900;52.996;6.278;2023-04-03T05:51:55;1.77;;;0.80;;
51862;SDS011;37900;52.996;6.278;2023-04-03T05:54:25;1.20;;;0.57;;
51862;SDS011;37900;52.996;6.278;2023-04-03T05:56:52;0.85;;;0.60;;
51862;SDS011;37900;52.996;6.278;2023-04-03T05:59:18;0.95;;;0.70;;
51862;SDS011;37900;52.996;6.278;2023-04-03T06:04:11;1.60;;;0.80;;
51862;SDS011;37900;52.996;6.278;2023-04-03T06:06:45;1.30;;;0.77;;
51862;SDS011;37900;52.996;6.278;2023-04-03T06:09:17;1.13;;;0.73;;
51862;SDS011;37900;52.996;6.278;2023-04-03T06:11:43;0.73;;;0.70;;
51862;SDS011;37900;52.996;6.278;2023-04-03T06:14:09;1.60;;;1.08;;
51862;SDS011;37900;52.996;6.278;2023-04-03T06:16:35;0.70;;;0.60;;
51862;SDS011;37900;52.996;6.278;2023-04-03T06:19:02;0.85;;;0.50;;
51862;SDS011;37900;52.996;6.278;2023-04-03T06:21:29;1.98;;;0.93;;
51862;SDS011;37900;52.996;6.278;2023-04-03T06:23:55;2.42;;;0.73;;
51862;SDS011;37900;52.996;6.278;2023-04-03T06:26:21;1.45;;;0.93;;
51862;SDS011;37900;52.996;6.278;2023-04-03T06:28:47;1.50;;;1.08;;
51862;SDS011;37900;52.996;6.278;2023-04-03T06:31:13;1.17;;;1.00;;
51862;SDS011;37900;52.996;6.278;2023-04-03T06:33:38;0.90;;;0.73;;
51862;SDS011;37900;52.996;6.278;2023-04-03T06:36:04;1.25;;;0.82;;
51862;SDS011;37900;52.996;6.278;2023-04-03T06:38:31;5.65;;;1.17;;
51862;SDS011;37900;52.996;6.278;2023-04-03T06:40:57;2.40;;;1.13;;
51862;SDS011;37900;52.996;6.278;2023-04-03T06:43:23;1.88;;;1.15;;
51862;SDS011;37900;52.996;6.278;2023-04-03T06:45:52;4.65;;;1.65;;
51862;SDS011;37900;52.996;6.278;2023-04-03T06:48:18;1.63;;;1.10;;
51862;SDS011;37900;52.996;6.278;2023-04-03T06:50:44;2.55;;;1.20;;
51862;SDS011;37900;52.996;6.278;2023-04-03T06:53:10;2.53;;;1.30;;
51862;SDS011;37900;52.996;6.278;2023-04-03T06:55:37;2.25;;;1.08;;
51862;SDS011;37900;52.996;6.278;2023-04-03T06:58:03;2.10;;;1.10;;
51862;SDS011;37900;52.996;6.278;2023-04-03T07:00:29;5.10;;;1.33;;
51862;SDS011;37900;52.996;6.278;2023-04-03T07:02:55;2.95;;;1.00;;
51862;SDS011;37900;52.996;6.278;2023-04-03T07:05:22;3.30;;;1.10;;
51862;SDS011;37900;52.996;6.278;2023-04-03T07:07:48;4.10;;;1.20;;
51862;SDS011;37900;52.996;6.278;2023-04-03T07:10:15;2.40;;;1.55;;
51862;SDS011;37900;52.996;6.278;2023-04-03T07:12:41;11.75;;;2.20;;
51862;SDS011;37900;52.996;6.278;2023-04-03T07:15:07;2.50;;;1.30;;
51862;SDS011;37900;52.996;6.278;2023-04-03T07:17:33;2.83;;;1.10;;
51862;SDS011;37900;52.996;6.278;2023-04-03T07:19:59;2.67;;;1.30;;
51862;SDS011;37900;52.996;6.278;2023-04-03T07:22:25;2.75;;;1.27;;
51862;SDS011;37900;52.996;6.278;2023-04-03T07:24:50;2.80;;;1.55;;
51862;SDS011;37900;52.996;6.278;2023-04-03T07:27:16;2.35;;;1.40;;
51862;SDS011;37900;52.996;6.278;2023-04-03T07:29:43;5.60;;;1.30;;
51862;SDS011;37900;52.996;6.278;2023-04-03T07:32:09;2.72;;;1.73;;
51862;SDS011;37900;52.996;6.278;2023-04-03T07:34:36;3.37;;;1.20;;
51862;SDS011;37900;52.996;6.278;2023-04-03T07:37:02;3.22;;;1.38;;
51862;SDS011;37900;52.996;6.278;2023-04-03T07:39:28;2.63;;;1.75;;
51862;SDS011;37900;52.996;6.278;2023-04-03T07:41:54;3.65;;;1.60;;
51862;SDS011;37900;52.996;6.278;2023-04-03T07:44:23;2.30;;;1.40;;
51862;SDS011;37900;52.996;6.278;2023-04-03T07:46:49;3.20;;;1.42;;
51862;SDS011;37900;52.996;6.278;2023-04-03T07:49:15;2.28;;;1.52;;
51862;SDS011;37900;52.996;6.278;2023-04-03T07:51:43;2.20;;;1.35;;
51862;SDS011;37900;52.996;6.278;2023-04-03T07:54:09;3.38;;;1.65;;
51862;SDS011;37900;52.996;6.278;2023-04-03T07:56:35;4.05;;;1.48;;
51862;SDS011;37900;52.996;6.278;2023-04-03T07:59:01;2.05;;;1.20;;
51862;SDS011;37900;52.996;6.278;2023-04-03T08:01:28;3.07;;;1.43;;
51862;SDS011;37900;52.996;6.278;2023-04-03T08:03:54;3.75;;;1.77;;
51862;SDS011;37900;52.996;6.278;2023-04-03T08:06:19;1.80;;;1.30;;
51862;SDS011;37900;52.996;6.278;2023-04-03T08:08:45;3.38;;;1.45;;
51862;SDS011;37900;52.996;6.278;2023-04-03T08:11:12;2.07;;;1.17;;
51862;SDS011;37900;52.996;6.278;2023-04-03T08:13:38;4.05;;;1.42;;
51862;SDS011;37900;52.996;6.278;2023-04-03T08:16:10;3.63;;;1.58;;
51862;SDS011;37900;52.996;6.278;2023-04-03T08:18:37;2.65;;;1.30;;
51862;SDS011;37900;52.996;6.278;2023-04-03T08:21:08;3.47;;;2.00;;
51862;SDS011;37900;52.996;6.278;2023-04-03T08:23:35;4.00;;;1.80;;
51862;SDS011;37900;52.996;6.278;2023-04-03T08:26:20;3.20;;;1.60;;
51862;SDS011;37900;52.996;6.278;2023-04-03T08:28:46;6.07;;;1.40;;
51862;SDS011;37900;52.996;6.278;2023-04-03T08:31:14;4.53;;;1.77;;
51862;SDS011;37900;52.996;6.278;2023-04-03T08:33:43;3.40;;;1.45;;
51862;SDS011;37900;52.996;6.278;2023-04-03T08:36:17;6.80;;;1.50;;
51862;SDS011;37900;52.996;6.278;2023-04-03T08:38:45;7.22;;;1.67;;
51862;SDS011;37900;52.996;6.278;2023-04-03T08:41:24;3.83;;;1.95;;
51862;SDS011;37900;52.996;6.278;2023-04-03T08:49:48;5.38;;;2.15;;
51862;SDS011;37900;52.996;6.278;2023-04-03T08:52:19;5.68;;;2.10;;
51862;SDS011;37900;52.996;6.278;2023-04-03T08:57:26;7.40;;;2.20;;
51862;SDS011;37900;52.996;6.278;2023-04-03T09:00:00;8.82;;;1.90;;
51862;SDS011;37900;52.996;6.278;2023-04-03T09:02:33;5.10;;;1.70;;
51862;SDS011;37900;52.996;6.278;2023-04-03T09:08:29;3.63;;;1.58;;
51862;SDS011;37900;52.996;6.278;2023-04-03T09:18:57;4.53;;;1.75;;
51862;SDS011;37900;52.996;6.278;2023-04-03T09:21:36;3.53;;;1.33;;
51862;SDS011;37900;52.996;6.278;2023-04-03T09:24:04;8.57;;;1.60;;
51862;SDS011;37900;52.996;6.278;2023-04-03T09:26:41;7.80;;;2.22;;
51862;SDS011;37900;52.996;6.278;2023-04-03T09:31:42;6.95;;;1.75;;
51862;SDS011;37900;52.996;6.278;2023-04-03T09:34:24;4.63;;;1.70;;
51862;SDS011;37900;52.996;6.278;2023-04-03T09:36:55;5.38;;;2.13;;
51862;SDS011;37900;52.996;6.278;2023-04-03T09:39:28;2.53;;;1.52;;
51862;SDS011;37900;52.996;6.278;2023-04-03T09:41:55;5.43;;;1.77;;
51862;SDS011;37900;52.996;6.278;2023-04-03T09:47:00;5.50;;;1.80;;
51862;SDS011;37900;52.996;6.278;2023-04-03T09:52:39;6.10;;;2.08;;
51862;SDS011;37900;52.996;6.278;2023-04-03T09:55:26;7.95;;;1.88;;
51862;SDS011;37900;52.996;6.278;2023-04-03T09:57:55;6.47;;;1.73;;
51862;SDS011;37900;52.996;6.278;2023-04-03T10:00:25;9.23;;;1.70;;
51862;SDS011;37900;52.996;6.278;2023-04-03T10:03:02;10.45;;;2.15;;
51862;SDS011;37900;52.996;6.278;2023-04-03T10:05:39;10.82;;;1.77;;
51862;SDS011;37900;52.996;6.278;2023-04-03T10:08:14;5.68;;;1.98;;
51862;SDS011;37900;52.996;6.278;2023-04-03T10:10:49;8.30;;;1.75;;
51862;SDS011;37900;52.996;6.278;2023-04-03T10:13:49;6.82;;;2.20;;
51862;SDS011;37900;52.996;6.278;2023-04-03T10:16:21;6.55;;;1.73;;
51862;SDS011;37900;52.996;6.278;2023-04-03T10:24:41;6.95;;;1.73;;
51862;SDS011;37900;52.996;6.278;2023-04-03T10:27:11;6.28;;;2.20;;
51862;SDS011;37900;52.996;6.278;2023-04-03T10:32:22;3.92;;;1.92;;
51862;SDS011;37900;52.996;6.278;2023-04-03T10:35:10;5.03;;;1.90;;
51862;SDS011;37900;52.996;6.278;2023-04-03T10:38:01;4.82;;;1.73;;
51862;SDS011;37900;52.996;6.278;2023-04-03T10:40:57;3.28;;;1.40;;
51862;SDS011;37900;52.996;6.278;2023-04-03T10:44:02;3.13;;;1.52;;
51862;SDS011;37900;52.996;6.278;2023-04-03T10:46:47;6.22;;;1.70;;
51862;SDS011;37900;52.996;6.278;2023-04-03T10:52:03;7.88;;;2.03;;
51862;SDS011;37900;52.996;6.278;2023-04-03T10:54:46;6.63;;;1.77;;
51862;SDS011;37900;52.996;6.278;2023-04-03T10:57:24;3.35;;;1.38;;
51862;SDS011;37900;52.996;6.278;2023-04-03T10:59:55;1.63;;;1.07;;
51862;SDS011;37900;52.996;6.278;2023-04-03T11:02:48;4.43;;;1.48;;
51862;SDS011;37900;52.996;6.278;2023-04-03T11:05:18;3.30;;;1.33;;
51862;SDS011;37900;52.996;6.278;2023-04-03T11:07:48;4.85;;;1.30;;
51862;SDS011;37900;52.996;6.278;2023-04-03T11:10:21;5.63;;;1.52;;
51862;SDS011;37900;52.996;6.278;2023-04-03T11:16:28;3.88;;;1.10;;
51862;SDS011;37900;52.996;6.278;2023-04-03T11:21:46;2.85;;;1.40;;
51862;SDS011;37900;52.996;6.278;2023-04-03T11:24:25;1.98;;;1.20;;
51862;SDS011;37900;52.996;6.278;2023-04-03T11:26:55;8.32;;;1.38;;
51862;SDS011;37900;52.996;6.278;2023-04-03T11:29:24;6.32;;;1.70;;
51862;SDS011;37900;52.996;6.278;2023-04-03T11:34:42;5.18;;;1.30;;
51862;SDS011;37900;52.996;6.278;2023-04-03T11:37:20;8.85;;;2.58;;
51862;SDS011;37900;52.996;6.278;2023-04-03T11:40:00;5.03;;;1.52;;
51862;SDS011;37900;52.996;6.278;2023-04-03T11:47:55;6.80;;;1.88;;
51862;SDS011;37900;52.996;6.278;2023-04-03T11:50:41;3.22;;;1.80;;
51862;SDS011;37900;52.996;6.278;2023-04-03T11:58:16;4.75;;;1.52;;
51862;SDS011;37900;52.996;6.278;2023-04-03T12:08:22;4.50;;;2.08;;
51862;SDS011;37900;52.996;6.278;2023-04-03T12:13:34;2.53;;;1.17;;
51862;SDS011;37900;52.996;6.278;2023-04-03T12:16:01;8.00;;;1.80;;
51862;SDS011;37900;52.996;6.278;2023-04-03T12:21:08;4.03;;;1.63;;
51862;SDS011;37900;52.996;6.278;2023-04-03T12:23:36;3.70;;;1.35;;
51862;SDS011;37900;52.996;6.278;2023-04-03T12:26:21;2.60;;;1.20;;
51862;SDS011;37900;52.996;6.278;2023-04-03T12:28:51;4.13;;;1.40;;
51862;SDS011;37900;52.996;6.278;2023-04-03T12:31:18;3.65;;;1.50;;
51862;SDS011;37900;52.996;6.278;2023-04-03T12:45:09;5.95;;;1.77;;
51862;SDS011;37900;52.996;6.278;2023-04-03T12:47:46;4.50;;;1.60;;
51862;SDS011;37900;52.996;6.278;2023-04-03T12:50:27;7.18;;;1.60;;
51862;SDS011;37900;52.996;6.278;2023-04-03T12:53:05;2.03;;;1.10;;
51862;SDS011;37900;52.996;6.278;2023-04-03T12:55:36;3.20;;;1.20;;
51862;SDS011;37900;52.996;6.278;2023-04-03T13:03:38;4.82;;;1.50;;
51862;SDS011;37900;52.996;6.278;2023-04-03T13:06:06;8.75;;;1.90;;
51862;SDS011;37900;52.996;6.278;2023-04-03T13:08:31;3.05;;;1.40;;
51862;SDS011;37900;52.996;6.278;2023-04-03T13:11:01;8.43;;;1.73;;
51862;SDS011;37900;52.996;6.278;2023-04-03T13:13:30;9.25;;;1.65;;
51862;SDS011;37900;52.996;6.278;2023-04-03T13:15:56;4.80;;;1.60;;
51862;SDS011;37900;52.996;6.278;2023-04-03T13:21:03;6.30;;;1.88;;
51862;SDS011;37900;52.996;6.278;2023-04-03T13:23:31;3.92;;;1.50;;
51862;SDS011;37900;52.996;6.278;2023-04-03T13:26:00;3.80;;;1.55;;
51862;SDS011;37900;52.996;6.278;2023-04-03T13:28:28;7.90;;;1.85;;
51862;SDS011;37900;52.996;6.278;2023-04-03T13:31:16;8.75;;;2.05;;
51862;SDS011;37900;52.996;6.278;2023-04-03T13:36:37;3.22;;;1.48;;
51862;SDS011;37900;52.996;6.278;2023-04-03T13:39:17;3.42;;;1.40;;
51862;SDS011;37900;52.996;6.278;2023-04-03T13:41:50;6.65;;;1.58;;
51862;SDS011;37900;52.996;6.278;2023-04-03T13:44:26;6.22;;;2.15;;
51862;SDS011;37900;52.996;6.278;2023-04-03T13:46:55;8.40;;;2.30;;
51862;SDS011;37900;52.996;6.278;2023-04-03T13:51:51;12.95;;;2.72;;
51862;SDS011;37900;52.996;6.278;2023-04-03T13:54:19;6.95;;;1.70;;
51862;SDS011;37900;52.996;6.278;2023-04-03T13:56:52;10.02;;;1.88;;
51862;SDS011;37900;52.996;6.278;2023-04-03T13:59:22;7.63;;;2.15;;
51862;SDS011;37900;52.996;6.278;2023-04-03T14:04:27;3.10;;;1.55;;
51862;SDS011;37900;52.996;6.278;2023-04-03T14:06:55;5.50;;;2.13;;
51862;SDS011;37900;52.996;6.278;2023-04-03T14:09:22;5.75;;;1.48;;
51862;SDS011;37900;52.996;6.278;2023-04-03T14:11:49;4.85;;;1.50;;
51862;SDS011;37900;52.996;6.278;2023-04-03T14:14:21;3.40;;;1.52;;
51862;SDS011;37900;52.996;6.278;2023-04-03T14:16:56;6.05;;;1.70;;
51862;SDS011;37900;52.996;6.278;2023-04-03T14:19:32;4.45;;;1.25;;
51862;SDS011;37900;52.996;6.278;2023-04-03T14:22:00;4.88;;;1.90;;
51862;SDS011;37900;52.996;6.278;2023-04-03T14:24:31;4.03;;;1.70;;
51862;SDS011;37900;52.996;6.278;2023-04-03T14:26:57;3.83;;;1.38;;
51862;SDS011;37900;52.996;6.278;2023-04-03T14:29:24;6.78;;;1.60;;
51862;SDS011;37900;52.996;6.278;2023-04-03T14:31:50;5.32;;;2.00;;
51862;SDS011;37900;52.996;6.278;2023-04-03T14:34:16;4.75;;;1.23;;
51862;SDS011;37900;52.996;6.278;2023-04-03T14:36:43;2.83;;;1.10;;
51862;SDS011;37900;52.996;6.278;2023-04-03T14:39:11;4.65;;;1.58;;
51862;SDS011;37900;52.996;6.278;2023-04-03T14:41:42;4.45;;;1.63;;
51862;SDS011;37900;52.996;6.278;2023-04-03T14:44:08;5.53;;;1.30;;
51862;SDS011;37900;52.996;6.278;2023-04-03T14:46:35;3.20;;;1.10;;
51862;SDS011;37900;52.996;6.278;2023-04-03T14:49:03;2.33;;;1.30;;
51862;SDS011;37900;52.996;6.278;2023-04-03T14:51:37;5.60;;;1.70;;
51862;SDS011;37900;52.996;6.278;2023-04-03T14:54:03;4.25;;;1.25;;
51862;SDS011;37900;52.996;6.278;2023-04-03T14:56:35;4.05;;;2.00;;
51862;SDS011;37900;52.996;6.278;2023-04-03T14:59:01;3.75;;;1.38;;
51862;SDS011;37900;52.996;6.278;2023-04-03T15:01:27;3.05;;;1.63;;
51862;SDS011;37900;52.996;6.278;2023-04-03T15:03:53;4.50;;;1.67;;
51862;SDS011;37900;52.996;6.278;2023-04-03T15:06:19;1.85;;;1.00;;
51862;SDS011;37900;52.996;6.278;2023-04-03T15:08:46;3.28;;;1.30;;
51862;SDS011;37900;52.996;6.278;2023-04-03T15:11:13;4.38;;;1.10;;
51862;SDS011;37900;52.996;6.278;2023-04-03T15:13:40;5.57;;;1.55;;
51862;SDS011;37900;52.996;6.278;2023-04-03T15:16:11;3.45;;;1.30;;
51862;SDS011;37900;52.996;6.278;2023-04-03T15:18:43;7.50;;;1.63;;
51862;SDS011;37900;52.996;6.278;2023-04-03T15:21:09;4.72;;;1.10;;
51862;SDS011;37900;52.996;6.278;2023-04-03T15:23:35;5.32;;;1.30;;
51862;SDS011;37900;52.996;6.278;2023-04-03T15:26:01;1.67;;;1.05;;
51862;SDS011;37900;52.996;6.278;2023-04-03T15:28:35;3.60;;;1.17;;
51862;SDS011;37900;52.996;6.278;2023-04-03T15:31:04;2.63;;;1.08;;
51862;SDS011;37900;52.996;6.278;2023-04-03T15:33:31;2.60;;;1.55;;
51862;SDS011;37900;52.996;6.278;2023-04-03T15:35:57;3.50;;;1.23;;
51862;SDS011;37900;52.996;6.278;2023-04-03T15:38:23;3.13;;;1.45;;
51862;SDS011;37900;52.996;6.278;2023-04-03T15:40:49;2.70;;;1.10;;
51862;SDS011;37900;52.996;6.278;2023-04-03T15:43:15;3.65;;;1.27;;
51862;SDS011;37900;52.996;6.278;2023-04-03T15:45:41;4.25;;;1.15;;
51862;SDS011;37900;52.996;6.278;2023-04-03T15:48:08;4.32;;;1.27;;
51862;SDS011;37900;52.996;6.278;2023-04-03T15:50:35;2.75;;;1.50;;
51862;SDS011;37900;52.996;6.278;2023-04-03T15:53:01;2.83;;;1.17;;
51862;SDS011;37900;52.996;6.278;2023-04-03T15:55:30;2.72;;;0.88;;
51862;SDS011;37900;52.996;6.278;2023-04-03T15:57:59;5.68;;;1.20;;
51862;SDS011;37900;52.996;6.278;2023-04-03T16:00:26;2.67;;;1.00;;
51862;SDS011;37900;52.996;6.278;2023-04-03T16:02:54;1.70;;;0.90;;
51862;SDS011;37900;52.996;6.278;2023-04-03T16:05:23;1.20;;;0.85;;
51862;SDS011;37900;52.996;6.278;2023-04-03T16:07:52;1.95;;;1.08;;
51862;SDS011;37900;52.996;6.278;2023-04-03T16:10:18;2.15;;;0.80;;
51862;SDS011;37900;52.996;6.278;2023-04-03T16:12:45;2.28;;;1.10;;
51862;SDS011;37900;52.996;6.278;2023-04-03T16:15:10;1.50;;;0.95;;
51862;SDS011;37900;52.996;6.278;2023-04-03T16:17:36;3.88;;;0.98;;
51862;SDS011;37900;52.996;6.278;2023-04-03T16:20:03;2.08;;;1.17;;
51862;SDS011;37900;52.996;6.278;2023-04-03T16:22:31;2.47;;;1.30;;
51862;SDS011;37900;52.996;6.278;2023-04-03T16:24:58;4.43;;;2.50;;
51862;SDS011;37900;52.996;6.278;2023-04-03T16:27:24;6.00;;;2.90;;
51862;SDS011;37900;52.996;6.278;2023-04-03T16:29:53;10.68;;;3.70;;
51862;SDS011;37900;52.996;6.278;2023-04-03T16:34:46;19.02;;;4.43;;
51862;SDS011;37900;52.996;6.278;2023-04-03T16:37:12;11.50;;;4.28;;
51862;SDS011;37900;52.996;6.278;2023-04-03T16:39:37;12.52;;;4.43;;
51862;SDS011;37900;52.996;6.278;2023-04-03T16:42:03;12.70;;;3.60;;
51862;SDS011;37900;52.996;6.278;2023-04-03T16:44:29;8.65;;;3.80;;
51862;SDS011;37900;52.996;6.278;2023-04-03T16:46:55;8.07;;;3.70;;